.
WxDataArchive / Data Records for 2016-03-29
2016-03-28 March 2016 2016-03-30

Data Records for Tuesday, 29 March 2016

Time	Temp	Chill	HIndex	Humid	Dewpt	 Wind 	HiWind	WindDir	Rain 	Barom
-----	----	-----	------	-----	-----	------	------	-------	-----	-----
00:00	35.3	35.3	35.3	87	31.8	0	1	315	0.00	30.175 
00:05	35.5	35.5	35.5	87	32.0	0	0	---	0.00	30.175 
00:10	35.5	35.5	35.5	87	32.0	0	0	---	0.00	30.175 
00:15	35.5	35.5	35.5	87	32.0	0	0	---	0.00	30.180 
00:20	35.5	35.5	35.5	87	32.0	0	0	---	0.00	30.180 
00:25	35.6	35.6	35.6	87	32.1	0	0	---	0.00	30.180 
00:30	35.6	35.6	35.6	87	32.1	0	0	---	0.00	30.182 
00:35	35.5	35.5	35.5	86	31.7	0	0	---	0.00	30.182 
00:40	35.5	35.5	35.5	86	31.7	0	0	---	0.00	30.182 
00:45	35.3	35.3	35.3	86	31.5	0	0	---	0.00	30.183 
00:50	35.2	35.2	35.2	86	31.4	0	0	---	0.00	30.183 
00:55	35.0	35.0	35.0	86	31.2	0	1	315	0.00	30.183 
01:00	35.0	35.0	35.0	86	31.2	0	0	---	0.00	30.187 
01:05	35.0	35.0	35.0	86	31.2	0	2	315	0.00	30.187 
01:10	35.0	35.0	35.0	86	31.2	0	1	315	0.00	30.187 
01:15	35.0	35.0	35.0	86	31.2	0	1	315	0.00	30.186 
01:20	35.0	35.0	35.0	86	31.2	0	1	315	0.00	30.186 
01:25	35.0	35.0	35.0	86	31.2	0	1	315	0.00	30.186 
01:30	35.0	35.0	35.0	86	31.2	0	0	---	0.00	30.189 
01:35	34.9	34.9	34.9	85	30.9	0	1	315	0.00	30.189 
01:40	34.7	34.7	34.7	85	30.7	0	0	---	0.00	30.189 
01:45	34.6	34.6	34.6	85	30.6	0	0	---	0.00	30.191 
01:50	34.4	34.4	34.4	85	30.4	0	0	---	0.00	30.191 
01:55	34.3	34.3	34.3	85	30.3	0	0	---	0.00	30.191 
02:00	34.1	34.1	34.1	85	30.1	0	0	---	0.00	30.192 
02:05	34.0	34.0	34.0	85	30.0	0	0	---	0.00	30.192 
02:10	33.8	33.8	33.8	85	29.8	0	0	---	0.00	30.192 
02:15	33.5	33.5	33.5	85	29.5	0	0	---	0.00	30.195 
02:20	33.4	33.4	33.4	86	29.7	0	0	---	0.00	30.195 
02:25	33.2	33.2	33.2	86	29.5	0	0	---	0.00	30.195 
02:30	33.1	33.1	33.1	86	29.4	0	0	---	0.00	30.197 
02:35	33.1	33.1	33.1	86	29.4	0	0	---	0.00	30.197 
02:40	32.9	32.9	32.9	86	29.2	0	0	---	0.00	30.197 
02:45	32.8	32.8	32.8	86	29.1	0	0	---	0.00	30.199 
02:50	32.5	32.5	32.5	86	28.8	0	0	---	0.00	30.199 
02:55	32.4	32.4	32.4	86	28.7	0	0	---	0.00	30.199 
03:00	32.1	32.1	32.1	86	28.4	0	0	---	0.00	30.209 
03:05	31.9	31.9	31.9	87	28.5	0	0	---	0.00	30.209 
03:10	31.8	31.8	31.8	87	28.4	0	0	---	0.00	30.209 
03:15	31.6	31.6	31.6	87	28.2	0	0	---	0.00	30.208 
03:20	31.5	31.5	31.5	87	28.1	0	0	---	0.00	30.208 
03:25	31.3	31.3	31.3	87	27.9	0	0	---	0.00	30.208 
03:30	31.2	31.2	31.2	87	27.8	0	0	---	0.00	30.209 
03:35	31.0	31.0	31.0	88	27.9	0	0	---	0.00	30.209 
03:40	30.9	30.9	30.9	88	27.8	0	0	---	0.00	30.209 
03:45	30.9	30.9	30.9	88	27.8	0	0	---	0.00	30.209 
03:50	30.9	30.9	30.9	88	27.8	0	0	---	0.00	30.209 
03:55	30.9	30.9	30.9	88	27.8	0	0	---	0.00	30.209 
04:00	31.0	31.0	31.0	89	28.1	0	0	---	0.00	30.210 
04:05	31.2	31.2	31.2	89	28.3	0	0	---	0.00	30.210 
04:10	31.3	31.3	31.3	89	28.4	0	0	---	0.00	30.210 
04:15	31.5	31.5	31.5	89	28.6	0	0	---	0.00	30.211 
04:20	31.5	31.5	31.5	89	28.6	0	0	---	0.00	30.211 
04:25	31.5	31.5	31.5	89	28.6	0	1	315	0.00	30.211 
04:30	31.6	31.6	31.6	89	28.7	0	0	---	0.00	30.211 
04:35	31.6	31.6	31.6	88	28.5	0	0	---	0.00	30.211 
04:40	31.5	31.5	31.5	88	28.4	0	0	---	0.00	30.211 
04:45	31.5	31.5	31.5	88	28.4	0	0	---	0.00	30.215 
04:50	31.3	31.3	31.3	88	28.2	0	0	---	0.00	30.215 
04:55	31.3	31.3	31.3	88	28.2	0	0	---	0.00	30.215 
05:00	31.3	31.3	31.3	88	28.2	0	0	---	0.00	30.217 
05:05	31.3	31.3	31.3	88	28.2	0	0	---	0.00	30.217 
05:10	31.2	31.2	31.2	88	28.1	0	0	---	0.00	30.217 
05:15	31.0	31.0	31.0	88	27.9	0	0	---	0.00	30.220 
05:20	31.0	31.0	31.0	88	27.9	0	0	---	0.00	30.220 
05:25	30.9	30.9	30.9	88	27.8	0	0	---	0.00	30.220 
05:30	30.7	30.7	30.7	88	27.6	0	0	---	0.00	30.226 
05:35	30.4	30.4	30.4	88	27.3	0	0	---	0.00	30.226 
05:40	30.3	30.3	30.3	88	27.2	0	0	---	0.00	30.226 
05:45	30.0	30.0	30.0	87	26.6	0	0	---	0.00	30.232 
05:50	29.8	29.8	29.8	88	26.7	0	0	---	0.00	30.232 
05:55	29.5	29.5	29.5	88	26.4	0	0	---	0.00	30.232 
06:00	29.4	29.4	29.4	88	26.3	0	0	---	0.00	30.235 
06:05	29.3	29.3	29.3	88	26.2	0	0	---	0.00	30.235 
06:10	29.1	29.1	29.1	88	26.0	0	0	---	0.00	30.235 
06:15	29.0	29.0	29.0	88	25.9	0	0	---	0.00	30.242 
06:20	28.8	28.8	28.8	88	25.7	0	0	---	0.00	30.242 
06:25	29.0	29.0	29.0	88	25.9	0	0	---	0.00	30.242 
06:30	28.8	28.8	28.8	88	25.7	0	0	---	0.00	30.250 
06:35	28.7	28.7	28.7	88	25.6	0	0	---	0.00	30.250 
06:40	28.7	28.7	28.7	88	25.6	0	0	---	0.00	30.250 
06:45	28.5	28.5	28.5	89	25.7	0	0	---	0.00	30.254 
06:50	28.5	28.5	28.5	89	25.7	0	0	---	0.00	30.254 
06:55	28.4	28.4	28.4	89	25.6	0	0	---	0.00	30.254 
07:00	28.4	28.4	28.4	89	25.6	0	0	---	0.00	30.261 
07:05	28.2	28.2	28.2	89	25.4	0	0	---	0.00	30.261 
07:10	28.1	28.1	28.1	89	25.3	0	0	---	0.00	30.261 
07:15	27.9	27.9	27.9	89	25.1	0	0	---	0.00	30.271 
07:20	27.8	27.8	27.8	89	25.0	0	0	---	0.00	30.271 
07:25	27.6	27.6	27.6	89	24.8	0	0	---	0.00	30.271 
07:30	27.6	27.6	27.6	89	24.8	0	0	---	0.00	30.284 
07:35	27.5	27.5	27.5	89	24.7	0	0	---	0.00	30.284 
07:40	27.5	27.5	27.5	89	24.7	0	0	---	0.00	30.284 
07:45	27.5	27.5	27.5	90	25.0	0	0	---	0.00	30.287 
07:50	27.5	27.5	27.5	90	25.0	0	0	---	0.00	30.287 
07:55	27.8	27.8	27.8	90	25.3	0	0	---	0.00	30.287 
08:00	28.2	28.2	28.2	90	25.7	0	0	---	0.00	30.300 
08:05	28.5	28.5	28.5	91	26.2	0	0	---	0.00	30.300 
08:10	29.0	29.0	29.0	91	26.7	0	0	---	0.00	30.300 
08:15	29.4	29.4	29.4	91	27.1	0	0	---	0.00	30.304 
08:20	30.0	30.0	30.0	91	27.7	0	0	---	0.00	30.304 
08:25	30.6	30.6	30.6	91	28.3	0	0	---	0.00	30.304 
08:30	31.0	31.0	31.0	91	28.7	0	0	---	0.00	30.309 
08:35	31.6	31.6	31.6	91	29.3	0	0	---	0.00	30.309 
08:40	32.1	32.1	32.1	91	29.8	0	0	---	0.00	30.309 
08:45	32.7	32.7	32.7	90	30.1	0	0	---	0.00	30.312 
08:50	33.2	33.2	33.2	90	30.6	0	1	45	0.00	30.312 
08:55	33.7	33.7	33.7	89	30.8	0	2	45	0.00	30.312 
09:00	34.3	34.3	34.3	88	31.1	0	1	45	0.00	30.315 
09:05	34.9	34.9	34.9	87	31.4	0	1	45	0.00	30.315 
09:10	35.3	35.3	35.3	85	31.2	0	1	45	0.00	30.315 
09:15	35.8	35.8	35.8	83	31.2	0	1	45	0.00	30.317 
09:20	36.3	36.3	36.3	82	31.3	0	1	45	0.00	30.317 
09:25	36.6	36.6	36.6	80	31.0	1	3	45	0.00	30.317 
09:30	37.0	37.0	37.0	78	30.8	0	3	22	0.00	30.317 
09:35	37.5	37.5	37.5	77	31.0	0	1	22	0.00	30.317 
09:40	37.9	37.9	37.9	76	31.0	0	2	22	0.00	30.317 
09:45	38.5	38.5	38.5	74	30.9	0	2	90	0.00	30.313 
09:50	39.1	39.1	39.1	72	30.8	0	2	90	0.00	30.313 
09:55	39.5	39.5	39.5	70	30.5	0	3	90	0.00	30.313 
10:00	40.1	40.1	40.1	70	31.1	0	2	90	0.00	30.312 
10:05	40.6	40.6	40.6	68	30.9	0	3	90	0.00	30.312 
10:10	41.2	41.2	41.2	68	31.5	0	3	90	0.00	30.312 
10:15	41.9	41.9	41.9	65	31.0	1	4	90	0.00	30.321 
10:20	42.6	42.6	42.6	65	31.7	1	3	90	0.00	30.321 
10:25	43.1	43.1	43.1	63	31.4	1	3	90	0.00	30.321 
10:30	43.2	43.2	43.2	61	30.7	1	4	90	0.00	30.323 
10:35	43.6	43.6	43.6	61	31.0	0	2	90	0.00	30.323 
10:40	44.2	44.2	44.2	60	31.2	1	3	90	0.00	30.323 
10:45	44.5	44.5	44.5	58	30.7	0	3	90	0.00	30.322 
10:50	44.8	44.8	44.8	57	30.5	1	4	90	0.00	30.322 
10:55	44.8	44.8	44.8	56	30.1	0	3	90	0.00	30.322 
11:00	45.4	45.4	45.4	55	30.2	0	3	90	0.00	30.324 
11:05	46.1	46.1	46.1	57	31.7	0	2	90	0.00	30.324 
11:10	46.4	46.4	46.4	53	30.2	1	5	90	0.00	30.324 
11:15	46.5	46.5	46.5	49	28.4	1	5	90	0.00	30.323 
11:20	46.7	46.7	46.7	51	29.5	0	3	90	0.00	30.323 
11:25	47.0	47.0	47.0	50	29.3	1	4	90	0.00	30.323 
11:30	47.1	47.1	47.1	52	30.4	1	4	112	0.00	30.325 
11:35	47.6	47.6	47.6	50	29.9	1	3	45	0.00	30.325 
11:40	48.2	48.2	48.2	49	29.9	1	4	90	0.00	30.325 
11:45	48.3	48.3	48.3	47	29.0	1	4	112	0.00	30.328 
11:50	48.3	48.3	48.3	48	29.5	2	5	90	0.00	30.328 
11:55	48.5	48.5	48.5	46	28.7	3	6	112	0.00	30.328 
12:00	48.8	48.8	48.8	47	29.5	1	5	112	0.00	30.325 
12:05	48.9	48.9	48.9	46	29.0	2	5	90	0.00	30.325 
12:10	49.4	49.4	49.4	48	30.5	2	7	90	0.00	30.325 
12:15	49.5	49.5	49.5	46	29.6	1	5	90	0.00	30.322 
12:20	49.8	49.8	49.8	43	28.2	2	5	112	0.00	30.322 
12:25	49.8	49.8	49.8	46	29.9	2	4	112	0.00	30.322 
12:30	49.8	49.8	49.8	45	29.3	2	6	112	0.00	30.322 
12:35	49.8	49.8	49.8	44	28.8	2	5	112	0.00	30.322 
12:40	49.9	49.9	49.9	43	28.3	0	2	90	0.00	30.322 
12:45	50.1	50.1	50.1	43	28.5	2	6	90	0.00	30.321 
12:50	50.2	50.2	50.2	44	29.1	1	4	90	0.00	30.321 
12:55	50.4	50.4	50.4	41	27.6	1	6	90	0.00	30.321 
13:00	50.4	50.4	50.4	41	27.6	4	6	112	0.00	30.320 
13:05	50.2	50.2	50.2	44	29.1	3	7	112	0.00	30.320 
13:10	50.5	50.5	50.5	46	30.5	1	4	112	0.00	30.320 
13:15	50.8	50.8	50.8	41	28.0	3	9	112	0.00	30.317 
13:20	51.1	51.1	51.1	43	29.4	2	6	112	0.00	30.317 
13:25	51.6	51.6	51.6	43	29.8	1	3	22	0.00	30.317 
13:30	51.6	51.6	51.6	40	28.1	1	6	90	0.00	30.310 
13:35	51.7	51.7	51.7	42	29.4	1	4	90	0.00	30.310 
13:40	51.9	51.9	51.9	40	28.3	2	7	90	0.00	30.310 
13:45	51.9	51.9	51.9	43	30.1	1	3	112	0.00	30.308 
13:50	51.9	51.9	51.9	41	28.9	1	5	338	0.00	30.308 
13:55	52.2	52.2	52.2	40	28.6	1	5	90	0.00	30.308 
14:00	52.5	52.5	52.5	44	31.2	1	4	90	0.00	30.305 
14:05	52.6	52.6	52.6	41	29.6	1	4	68	0.00	30.305 
14:10	52.5	52.5	52.5	38	27.6	0	2	45	0.00	30.305 
14:15	52.6	52.6	52.6	41	29.6	0	2	45	0.00	30.303 
14:20	52.8	52.8	52.8	39	28.5	2	9	112	0.00	30.303 
14:25	52.8	52.8	52.8	44	31.5	3	10	90	0.00	30.303 
14:30	52.9	52.9	52.9	39	28.6	1	5	22	0.00	30.302 
14:35	52.8	52.8	52.8	38	27.9	1	3	338	0.00	30.302 
14:40	52.8	52.8	52.8	39	28.5	1	3	338	0.00	30.302 
14:45	52.9	52.9	52.9	38	28.0	1	4	0	0.00	30.299 
14:50	52.9	52.9	52.9	38	28.0	1	6	270	0.00	30.299 
14:55	53.1	53.1	53.1	39	28.8	1	5	112	0.00	30.299 
15:00	53.2	53.2	53.2	42	30.7	1	3	315	0.00	30.293 
15:05	53.3	53.3	53.3	39	29.0	1	5	112	0.00	30.293 
15:10	53.2	53.2	53.2	43	31.3	2	5	112	0.00	30.293 
15:15	53.3	53.3	53.3	39	29.0	1	4	22	0.00	30.289 
15:20	53.6	53.6	53.6	40	29.9	1	6	90	0.00	30.289 
15:25	53.6	53.6	53.6	39	29.3	1	4	90	0.00	30.289 
15:30	53.8	53.8	53.8	38	28.8	0	2	22	0.00	30.280 
15:35	53.8	53.8	53.8	41	30.7	2	6	112	0.00	30.280 
15:40	53.9	53.9	53.9	39	29.5	1	4	270	0.00	30.280 
15:45	53.9	53.9	53.9	39	29.5	3	6	90	0.00	30.273 
15:50	53.3	53.3	53.3	39	29.0	1	4	112	0.00	30.273 
15:55	53.5	53.5	53.5	41	30.4	0	3	112	0.00	30.273 
16:00	53.5	53.5	53.5	40	29.8	2	6	90	0.00	30.265 
16:05	53.5	53.5	53.5	40	29.8	1	5	112	0.00	30.265 
16:10	53.8	53.8	53.8	43	31.8	1	7	45	0.00	30.265 
16:15	53.9	53.9	53.9	38	28.9	0	2	45	0.00	30.265 
16:20	53.8	53.8	53.8	36	27.5	0	2	45	0.00	30.265 
16:25	53.5	53.5	53.5	37	27.9	1	2	0	0.00	30.265 
16:30	53.3	53.3	53.3	37	27.7	0	3	0	0.00	30.266 
16:35	53.6	53.6	53.6	39	29.3	1	4	315	0.00	30.266 
16:40	53.6	53.6	53.6	39	29.3	1	4	90	0.00	30.266 
16:45	53.6	53.6	53.6	36	27.3	1	3	0	0.00	30.260 
16:50	53.6	53.6	53.6	39	29.3	0	4	338	0.00	30.260 
16:55	53.8	53.8	53.8	40	30.1	1	3	292	0.00	30.260 
17:00	53.9	53.9	53.9	40	30.1	1	4	338	0.00	30.257 
17:05	54.1	54.1	54.1	39	29.7	0	3	315	0.00	30.257 
17:10	53.9	53.9	53.9	39	29.5	1	5	90	0.00	30.257 
17:15	53.8	53.8	53.8	39	29.4	1	4	90	0.00	30.256 
17:20	53.8	53.8	53.8	38	28.8	0	2	90	0.00	30.256 
17:25	53.8	53.8	53.8	40	30.1	0	1	90	0.00	30.256 
17:30	53.9	53.9	53.9	38	28.9	2	6	112	0.00	30.250 
17:35	53.8	53.8	53.8	40	30.1	2	6	90	0.00	30.250 
17:40	53.5	53.5	53.5	40	29.8	3	6	112	0.00	30.250 
17:45	53.2	53.2	53.2	39	28.9	1	4	90	0.00	30.246 
17:50	53.1	53.1	53.1	39	28.8	1	4	112	0.00	30.246 
17:55	53.2	53.2	53.2	40	29.5	1	4	112	0.00	30.246 
18:00	53.3	53.3	53.3	39	29.0	0	3	90	0.00	30.243 
18:05	53.6	53.6	53.6	38	28.6	0	2	135	0.00	30.243 
18:10	53.8	53.8	53.8	39	29.4	0	3	135	0.00	30.243 
18:15	53.6	53.6	53.6	39	29.3	2	5	112	0.00	30.241 
18:20	53.3	53.3	53.3	38	28.3	0	2	112	0.00	30.241 
18:25	53.2	53.2	53.2	39	28.9	0	2	112	0.00	30.241 
18:30	53.1	53.1	53.1	39	28.8	1	4	112	0.00	30.242 
18:35	52.9	52.9	52.9	40	29.2	1	3	112	0.00	30.242 
18:40	52.8	52.8	52.8	39	28.5	0	2	112	0.00	30.242 
18:45	52.8	52.8	52.8	40	29.2	1	3	112	0.00	30.239 
18:50	52.8	52.8	52.8	42	30.3	1	4	112	0.00	30.239 
18:55	52.6	52.6	52.6	43	30.7	1	3	112	0.00	30.239 
19:00	52.5	52.5	52.5	42	30.1	0	3	112	0.00	30.236 
19:05	52.3	52.3	52.3	43	30.5	0	2	112	0.00	30.236 
19:10	52.0	52.0	52.0	43	30.2	0	2	112	0.00	30.236 
19:15	51.7	51.7	51.7	44	30.5	0	2	112	0.00	30.230 
19:20	51.6	51.6	51.6	45	31.0	0	2	112	0.00	30.230 
19:25	51.3	51.3	51.3	45	30.7	3	6	112	0.00	30.230 
19:30	51.1	51.1	51.1	46	31.0	2	4	112	0.00	30.231 
19:35	51.0	51.0	51.0	46	31.0	2	6	112	0.00	30.231 
19:40	50.7	50.7	50.7	47	31.2	2	4	112	0.00	30.231 
19:45	50.5	50.5	50.5	48	31.5	1	4	112	0.00	30.224 
19:50	50.4	50.4	50.4	49	32.0	0	3	112	0.00	30.224 
19:55	50.1	50.1	50.1	49	31.7	0	1	112	0.00	30.224 
20:00	49.6	49.6	49.6	50	31.7	0	1	112	0.00	30.219 
20:05	49.4	49.4	49.4	51	32.0	0	0	---	0.00	30.219 
20:10	48.9	48.9	48.9	51	31.6	0	0	---	0.00	30.219 
20:15	48.5	48.5	48.5	53	32.2	0	1	112	0.00	30.212 
20:20	48.0	48.0	48.0	53	31.7	0	2	112	0.00	30.212 
20:25	47.7	47.7	47.7	54	31.9	0	1	112	0.00	30.212 
20:30	47.4	47.4	47.4	54	31.6	0	1	112	0.00	30.213 
20:35	47.0	47.0	47.0	55	31.7	0	1	112	0.00	30.213 
20:40	46.7	46.7	46.7	55	31.4	0	1	112	0.00	30.213 
20:45	46.4	46.4	46.4	56	31.6	0	1	112	0.00	30.214 
20:50	46.1	46.1	46.1	56	31.3	0	1	112	0.00	30.214 
20:55	45.8	45.8	45.8	57	31.4	0	1	112	0.00	30.214 
21:00	45.7	45.7	45.7	57	31.3	0	1	112	0.00	30.220 
21:05	45.4	45.4	45.4	58	31.5	0	0	---	0.00	30.220 
21:10	45.1	45.1	45.1	58	31.2	0	1	112	0.00	30.220 
21:15	44.8	44.8	44.8	58	30.9	0	2	112	0.00	30.214 
21:20	44.6	44.6	44.6	59	31.2	0	1	112	0.00	30.214 
21:25	44.5	44.5	44.5	59	31.1	0	1	112	0.00	30.214 
21:30	44.3	44.3	44.3	60	31.3	0	1	112	0.00	30.213 
21:35	44.1	44.1	44.1	60	31.1	0	1	112	0.00	30.213 
21:40	43.9	43.9	43.9	61	31.3	0	1	112	0.00	30.213 
21:45	43.6	43.6	43.6	61	31.0	0	1	112	0.00	30.216 
21:50	43.3	43.3	43.3	61	30.8	0	0	---	0.00	30.216 
21:55	43.2	43.2	43.2	61	30.7	0	0	---	0.00	30.216 
22:00	42.9	42.9	42.9	61	30.4	0	0	---	0.00	30.215 
22:05	42.6	42.6	42.6	61	30.1	0	1	112	0.00	30.215 
22:10	42.5	42.5	42.5	61	30.0	0	1	112	0.00	30.215 
22:15	42.3	42.3	42.3	61	29.8	0	0	---	0.00	30.220 
22:20	42.2	42.2	42.2	61	29.7	0	1	112	0.00	30.220 
22:25	42.2	42.2	42.2	61	29.7	0	1	112	0.00	30.220 
22:30	42.1	42.1	42.1	61	29.6	0	1	112	0.00	30.222 
22:35	41.9	41.9	41.9	61	29.4	0	2	112	0.00	30.222 
22:40	41.9	41.9	41.9	61	29.4	0	1	112	0.00	30.222 
22:45	41.8	41.8	41.8	61	29.4	0	1	112	0.00	30.222 
22:50	41.8	41.8	41.8	61	29.4	0	1	112	0.00	30.222 
22:55	41.6	41.6	41.6	61	29.2	0	0	---	0.00	30.222 
23:00	41.3	41.3	41.3	61	28.9	0	0	---	0.00	30.222 
23:05	41.2	41.2	41.2	61	28.8	0	0	---	0.00	30.222 
23:10	41.1	41.1	41.1	61	28.7	0	0	---	0.00	30.222 
23:15	40.9	40.9	40.9	62	28.9	0	0	---	0.00	30.221 
23:20	40.6	40.6	40.6	62	28.6	0	0	---	0.00	30.221 
23:25	40.3	40.3	40.3	62	28.3	0	0	---	0.00	30.221 
23:30	40.1	40.1	40.1	63	28.5	0	0	---	0.00	30.222 
23:35	39.8	39.8	39.8	63	28.2	0	0	---	0.00	30.222 
23:40	39.5	39.5	39.5	64	28.3	0	0	---	0.00	30.222 
23:45	39.3	39.3	39.3	64	28.2	0	0	---	0.00	30.223 
23:50	39.1	39.1	39.1	65	28.3	0	0	---	0.00	30.223 
23:55	38.8	38.8	38.8	65	28.1	0	0	---	0.00	30.223 

CoCoRaHS
IN-AL-39
A2 Web Hosting
Creative Commons License
GoDaddy
search engine by freefind advanced

loaded 2018-12-19 10:16:57 • last modified 2010-11-18 10:43:29
Privacy PolicyDisclaimer
• wx.awcolley.com is powered by PmWiki v.2002016 •
• all content (unless otherwise noted) © 2018 A W Colley